Time;durP1;ratioP1;P1;durP2;ratioP2;P2;SDS_P1;SDS_P2;PMS_P1;PMS_P2;Temp;Humidity;BMP_temperature;BMP_pressure;BME280_temperature;BME280_humidity;BME280_pressure;Samples;Min_cycle;Max_cycle;Signal;HPM_P1;HPM_P2
2023/04/15 00:01:32;;;;;;;22.05;12.25;;;;;;;;;;5006994;28;20034;-82
2023/04/15 00:03:58;;;;;;;23.20;11.80;;;;;;;;;;5013065;28;20029;-81
2023/04/15 00:06:23;;;;;;;23.92;12.00;;;;;;;;;;5013657;28;20413;-81
2023/04/15 00:08:52;;;;;;;21.00;11.15;;;;;;;;;;4998705;28;20040;-82
2023/04/15 00:11:18;;;;;;;25.02;12.75;;;;;;;;;;5015118;28;20038;-82
2023/04/15 00:13:44;;;;;;;26.10;12.27;;;;;;;;;;5013365;28;20060;-81
2023/04/15 00:16:10;;;;;;;26.92;12.48;;;;;;;;;;4973943;28;20573;-82
2023/04/15 00:18:36;;;;;;;26.73;13.35;;;;;;;;;;4989859;28;20030;-82
2023/04/15 00:21:04;;;;;;;25.73;13.00;;;;;;;;;;5016667;28;20165;-82
2023/04/15 00:23:30;;;;;;;22.83;12.68;;;;;;;;;;4997282;28;20046;-81
2023/04/15 00:25:56;;;;;;;27.58;13.70;;;;;;;;;;4992679;28;20046;-81
2023/04/15 00:28:21;;;;;;;28.77;14.60;;;;;;;;;;4979660;28;20093;-82
2023/04/15 00:30:46;;;;;;;30.90;15.35;;;;;;;;;;4995865;28;20417;-81
2023/04/15 00:33:12;;;;;;;27.88;14.18;;;;;;;;;;4998895;28;20063;-81
2023/04/15 00:35:38;;;;;;;25.58;14.02;;;;;;;;;;4992904;28;20033;-81
2023/04/15 00:38:05;;;;;;;28.67;15.10;;;;;;;;;;4977879;28;20038;-82
2023/04/15 00:40:30;;;;;;;26.27;14.43;;;;;;;;;;4998290;28;20095;-81
2023/04/15 00:42:55;;;;;;;29.10;14.95;;;;;;;;;;4996471;28;20037;-82
2023/04/15 00:45:21;;;;;;;29.10;15.25;;;;;;;;;;5001920;28;20117;-82
2023/04/15 00:47:46;;;;;;;30.13;15.38;;;;;;;;;;4994205;28;20041;-82
2023/04/15 00:50:12;;;;;;;27.55;14.50;;;;;;;;;;4994976;28;20144;-81
2023/04/15 00:52:38;;;;;;;29.85;14.90;;;;;;;;;;4992347;28;20394;-81
2023/04/15 00:55:04;;;;;;;26.35;14.30;;;;;;;;;;4988538;28;20102;-82
2023/04/15 00:57:30;;;;;;;32.38;15.25;;;;;;;;;;4989795;28;20038;-82
2023/04/15 00:59:56;;;;;;;31.48;14.98;;;;;;;;;;4993123;28;20406;-81
2023/04/15 01:02:22;;;;;;;32.30;16.52;;;;;;;;;;4958806;28;20034;-82
2023/04/15 01:04:47;;;;;;;30.52;14.35;;;;;;;;;;4979501;28;20042;-82
2023/04/15 01:07:13;;;;;;;32.45;15.93;;;;;;;;;;4994123;28;20038;-81
2023/04/15 01:09:39;;;;;;;31.65;16.60;;;;;;;;;;4992512;28;20108;-81
2023/04/15 01:12:07;;;;;;;31.70;15.55;;;;;;;;;;4992928;28;20478;-82
2023/04/15 01:14:33;;;;;;;32.88;15.50;;;;;;;;;;4990861;28;20137;-82
2023/04/15 01:16:58;;;;;;;33.42;16.83;;;;;;;;;;4993504;28;20169;-82
2023/04/15 01:19:23;;;;;;;30.05;15.45;;;;;;;;;;4996918;28;20034;-82
2023/04/15 01:21:49;;;;;;;35.92;17.35;;;;;;;;;;4993119;28;20165;-82
2023/04/15 01:24:17;;;;;;;34.80;17.00;;;;;;;;;;4993098;28;20035;-82
2023/04/15 01:26:42;;;;;;;34.80;16.77;;;;;;;;;;5008225;28;20038;-81
2023/04/15 01:29:08;;;;;;;36.03;17.77;;;;;;;;;;4993350;28;20398;-81
2023/04/15 01:31:33;;;;;;;35.85;17.00;;;;;;;;;;4992874;28;20371;-82
2023/04/15 01:33:59;;;;;;;33.92;16.95;;;;;;;;;;4998187;28;20034;-81
2023/04/15 01:36:25;;;;;;;37.53;18.05;;;;;;;;;;4991486;28;20447;-82
2023/04/15 01:38:50;;;;;;;35.72;17.50;;;;;;;;;;4995692;28;20113;-82
2023/04/15 01:41:18;;;;;;;38.15;18.50;;;;;;;;;;4993823;28;20037;-82
2023/04/15 01:43:43;;;;;;;;;;;;;;;;;;4981705;28;20034;-82
2023/04/15 01:46:09;;;;;;;37.50;17.13;;;;;;;;;;4991969;28;20757;-82
2023/04/15 01:48:34;;;;;;;35.95;17.83;;;;;;;;;;4995792;28;20034;-81
2023/04/15 01:51:00;;;;;;;40.03;18.42;;;;;;;;;;4991970;28;20037;-81
2023/04/15 01:53:25;;;;;;;35.20;16.73;;;;;;;;;;4994454;28;20046;-82
2023/04/15 01:55:51;;;;;;;37.38;18.23;;;;;;;;;;4993251;28;20386;-81
2023/04/15 01:58:17;;;;;;;38.78;18.15;;;;;;;;;;4993316;28;20046;-81
2023/04/15 02:00:43;;;;;;;38.53;18.90;;;;;;;;;;4992461;28;20065;-81
2023/04/15 02:03:08;;;;;;;38.70;17.15;;;;;;;;;;4994151;28;20474;-81
2023/04/15 02:05:34;;;;;;;37.92;17.58;;;;;;;;;;4995536;28;20117;-81
2023/04/15 02:07:59;;;;;;;34.15;17.38;;;;;;;;;;5000448;28;20375;-81
2023/04/15 02:10:25;;;;;;;39.00;17.75;;;;;;;;;;4991475;28;20073;-81
2023/04/15 02:12:50;;;;;;;34.83;16.85;;;;;;;;;;4994217;28;20394;-81
2023/04/15 02:15:16;;;;;;;33.33;16.77;;;;;;;;;;4989209;28;20045;-81
2023/04/15 02:17:44;;;;;;;37.63;17.95;;;;;;;;;;4990483;28;20474;-81
2023/04/15 02:20:10;;;;;;;36.67;17.45;;;;;;;;;;4992613;28;20027;-81
2023/04/15 02:22:36;;;;;;;36.78;18.10;;;;;;;;;;4994918;28;20401;-82
2023/04/15 02:25:01;;;;;;;38.13;18.25;;;;;;;;;;4996695;28;20045;-81
2023/04/15 02:27:27;;;;;;;35.22;17.67;;;;;;;;;;4993109;28;20030;-81
2023/04/15 02:29:53;;;;;;;38.50;17.85;;;;;;;;;;4995061;28;20084;-81
2023/04/15 02:32:19;;;;;;;33.65;17.45;;;;;;;;;;4976532;28;20042;-81
2023/04/15 02:34:44;;;;;;;35.85;17.67;;;;;;;;;;4992707;28;20045;-82
2023/04/15 02:37:11;;;;;;;36.08;16.27;;;;;;;;;;4993200;28;20042;-82
2023/04/15 02:39:37;;;;;;;41.22;18.58;;;;;;;;;;4998346;28;20045;-82
2023/04/15 02:42:03;;;;;;;35.42;16.30;;;;;;;;;;4994454;28;20033;-82
2023/04/15 02:44:30;;;;;;;34.57;16.80;;;;;;;;;;4989898;28;20556;-81
2023/04/15 02:46:57;;;;;;;38.55;18.13;;;;;;;;;;4991828;28;20030;-82
2023/04/15 02:49:22;;;;;;;38.15;17.67;;;;;;;;;;4992440;28;20044;-81
2023/04/15 02:51:48;;;;;;;43.40;20.02;;;;;;;;;;4993283;28;20025;-81
2023/04/15 02:54:14;;;;;;;40.80;18.02;;;;;;;;;;4992676;28;20061;-81
2023/04/15 02:56:40;;;;;;;42.78;17.38;;;;;;;;;;4973212;28;20548;-82
2023/04/15 02:59:05;;;;;;;41.00;18.17;;;;;;;;;;4990213;28;20034;-81
2023/04/15 03:01:30;;;;;;;38.72;18.30;;;;;;;;;;4991122;28;20056;-81
2023/04/15 03:03:56;;;;;;;40.28;18.45;;;;;;;;;;4974208;28;20399;-82
2023/04/15 03:06:23;;;;;;;37.67;17.77;;;;;;;;;;4978150;28;20050;-81
2023/04/15 03:08:49;;;;;;;36.38;18.00;;;;;;;;;;4974655;28;20026;-81
2023/04/15 03:11:15;;;;;;;38.40;18.08;;;;;;;;;;4992824;28;20397;-82
2023/04/15 03:13:42;;;;;;;38.60;17.50;;;;;;;;;;4983057;28;20065;-81
2023/04/15 03:16:07;;;;;;;38.90;18.60;;;;;;;;;;4989784;28;20038;-81
2023/04/15 03:18:33;;;;;;;42.53;18.80;;;;;;;;;;4991556;28;20030;-82
2023/04/15 03:20:58;;;;;;;35.13;17.52;;;;;;;;;;4974334;28;20043;-82
2023/04/15 03:23:24;;;;;;;39.55;18.02;;;;;;;;;;4994497;28;20552;-82
2023/04/15 03:25:49;;;;;;;42.05;17.52;;;;;;;;;;4993203;28;20065;-81
2023/04/15 03:28:15;;;;;;;38.13;17.55;;;;;;;;;;4998360;28;20030;-81
2023/04/15 03:30:40;;;;;;;40.25;18.20;;;;;;;;;;4993817;28;20519;-81
2023/04/15 03:33:06;;;;;;;40.50;18.15;;;;;;;;;;4995947;28;20981;-81
2023/04/15 03:35:31;;;;;;;36.45;17.15;;;;;;;;;;4996084;28;20033;-81
2023/04/15 03:37:56;;;;;;;34.33;16.92;;;;;;;;;;5011280;28;20449;-81
2023/04/15 03:40:22;;;;;;;35.47;17.85;;;;;;;;;;5017939;28;20037;-81
2023/04/15 03:42:47;;;;;;;37.45;17.65;;;;;;;;;;4991139;28;20508;-82
2023/04/15 03:45:13;;;;;;;38.00;16.08;;;;;;;;;;5014253;28;20056;-81
2023/04/15 03:47:38;;;;;;;37.05;17.25;;;;;;;;;;5000159;28;20048;-81
2023/04/15 03:50:04;;;;;;;35.30;17.45;;;;;;;;;;5014133;28;20042;-81
2023/04/15 03:52:30;;;;;;;38.28;17.08;;;;;;;;;;5014049;28;20045;-81
2023/04/15 03:54:55;;;;;;;38.90;17.40;;;;;;;;;;5006244;28;20093;-81
2023/04/15 03:57:21;;;;;;;35.80;16.85;;;;;;;;;;4999284;28;20034;-81
2023/04/15 03:59:46;;;;;;;35.78;16.88;;;;;;;;;;4997421;28;20030;-81
2023/04/15 04:02:11;;;;;;;36.13;16.35;;;;;;;;;;4989749;28;20509;-81
2023/04/15 04:04:37;;;;;;;34.58;16.95;;;;;;;;;;5014522;28;20030;-81
2023/04/15 04:07:02;;;;;;;33.42;17.15;;;;;;;;;;5014809;28;20675;-80
2023/04/15 04:09:28;;;;;;;37.65;16.95;;;;;;;;;;5014078;28;20034;-80
2023/04/15 04:11:53;;;;;;;37.45;17.02;;;;;;;;;;5013332;28;20029;-81
2023/04/15 04:14:18;;;;;;;34.22;16.45;;;;;;;;;;5015390;28;20638;-81
2023/04/15 04:16:44;;;;;;;36.25;16.48;;;;;;;;;;5000077;28;20040;-80
2023/04/15 04:19:10;;;;;;;31.30;15.32;;;;;;;;;;5006112;28;20030;-81
2023/04/15 04:21:35;;;;;;;36.95;16.85;;;;;;;;;;4994850;28;20046;-81
2023/04/15 04:24:01;;;;;;;34.72;16.63;;;;;;;;;;5013757;28;20048;-81
2023/04/15 04:26:26;;;;;;;32.75;15.77;;;;;;;;;;5016202;28;20056;-81
2023/04/15 04:28:52;;;;;;;34.00;16.45;;;;;;;;;;4994687;28;20886;-80
2023/04/15 04:31:17;;;;;;;33.25;15.95;;;;;;;;;;4992074;28;20044;-81
2023/04/15 04:33:43;;;;;;;34.90;15.98;;;;;;;;;;5013911;28;20037;-81
2023/04/15 04:36:08;;;;;;;31.25;16.13;;;;;;;;;;5012927;28;20038;-81
2023/04/15 04:38:33;;;;;;;33.28;16.65;;;;;;;;;;5000715;28;20038;-81
2023/04/15 04:40:59;;;;;;;31.92;16.60;;;;;;;;;;4998574;28;20034;-80
2023/04/15 04:43:24;;;;;;;31.55;16.10;;;;;;;;;;4994302;28;20044;-80
2023/04/15 04:45:50;;;;;;;28.10;15.30;;;;;;;;;;5015602;28;20045;-80
2023/04/15 04:48:16;;;;;;;36.53;15.20;;;;;;;;;;4996023;28;20366;-80
2023/04/15 04:50:42;;;;;;;31.65;15.00;;;;;;;;;;5014846;28;20683;-80
2023/04/15 04:53:07;;;;;;;32.22;16.27;;;;;;;;;;4997011;28;20036;-80
2023/04/15 04:55:35;;;;;;;34.05;15.80;;;;;;;;;;4980406;28;20445;-80
2023/04/15 04:58:01;;;;;;;32.45;15.90;;;;;;;;;;4997265;28;20490;-80
2023/04/15 05:00:26;;;;;;;33.72;16.58;;;;;;;;;;4996131;28;20068;-80
2023/04/15 05:02:52;;;;;;;33.67;15.75;;;;;;;;;;4998354;28;20042;-80
2023/04/15 05:05:17;;;;;;;31.20;16.17;;;;;;;;;;4997450;28;20038;-80
2023/04/15 05:07:43;;;;;;;31.88;16.00;;;;;;;;;;4983800;28;20037;-80
2023/04/15 05:10:08;;;;;;;34.72;15.98;;;;;;;;;;5012117;28;20057;-81
2023/04/15 05:12:36;;;;;;;33.30;15.77;;;;;;;;;;4996643;28;20040;-80
2023/04/15 05:15:01;;;;;;;29.50;15.13;;;;;;;;;;5013472;28;20030;-80
2023/04/15 05:17:27;;;;;;;26.33;14.77;;;;;;;;;;4997971;28;20049;-80
2023/04/15 05:19:52;;;;;;;27.95;14.10;;;;;;;;;;5015307;28;20026;-80
2023/04/15 05:22:18;;;;;;;25.63;14.32;;;;;;;;;;4982229;28;20084;-80
2023/04/15 05:24:43;;;;;;;28.55;14.77;;;;;;;;;;4997029;28;20125;-80
2023/04/15 05:27:10;;;;;;;25.17;13.75;;;;;;;;;;4988599;28;20124;-80
2023/04/15 05:29:36;;;;;;;32.08;13.80;;;;;;;;;;5012913;28;20116;-80
2023/04/15 05:32:01;;;;;;;23.88;13.68;;;;;;;;;;4996370;28;20581;-81
2023/04/15 05:34:26;;;;;;;29.80;14.20;;;;;;;;;;4995556;28;20037;-80
2023/04/15 05:36:52;;;;;;;24.55;13.48;;;;;;;;;;5012835;28;20091;-80
2023/04/15 05:39:17;;;;;;;21.23;13.00;;;;;;;;;;4982597;28;20512;-80
2023/04/15 05:41:43;;;;;;;25.10;13.48;;;;;;;;;;4996511;28;20041;-80
2023/04/15 05:44:08;;;;;;;24.13;13.38;;;;;;;;;;5014002;28;20561;-79
2023/04/15 05:46:34;;;;;;;23.88;13.48;;;;;;;;;;4980734;28;20053;-80
2023/04/15 05:48:59;;;;;;;23.85;12.57;;;;;;;;;;5014823;28;20048;-80
2023/04/15 05:51:25;;;;;;;23.50;12.38;;;;;;;;;;5014287;28;20042;-79
2023/04/15 05:53:50;;;;;;;24.15;13.10;;;;;;;;;;4999909;28;20389;-80
2023/04/15 05:56:16;;;;;;;22.88;12.15;;;;;;;;;;5012304;28;20121;-80
2023/04/15 05:58:41;;;;;;;24.55;13.07;;;;;;;;;;4987721;28;20103;-81
2023/04/15 06:01:07;;;;;;;20.70;11.88;;;;;;;;;;4998597;28;20034;-81
2023/04/15 06:03:33;;;;;;;20.98;12.13;;;;;;;;;;5012694;28;20061;-81
2023/04/15 06:05:59;;;;;;;19.25;11.63;;;;;;;;;;4991877;28;20786;-81
2023/04/15 06:08:25;;;;;;;18.80;11.63;;;;;;;;;;5013758;28;20042;-81
2023/04/15 06:10:50;;;;;;;17.88;10.75;;;;;;;;;;4995723;28;20060;-81
2023/04/15 06:13:16;;;;;;;16.88;10.60;;;;;;;;;;4975994;28;20044;-79
2023/04/15 06:15:41;;;;;;;18.27;10.32;;;;;;;;;;5013124;28;20037;-79
2023/04/15 06:18:07;;;;;;;17.15;10.27;;;;;;;;;;5011429;28;20037;-79
2023/04/15 06:20:32;;;;;;;15.98;8.90;;;;;;;;;;4978183;28;20038;-82
2023/04/15 06:22:58;;;;;;;23.80;10.52;;;;;;;;;;4995741;28;20041;-80
2023/04/15 06:25:23;;;;;;;19.25;10.45;;;;;;;;;;5013289;28;20055;-80
2023/04/15 06:27:49;;;;;;;16.25;10.10;;;;;;;;;;4982273;28;20157;-81
2023/04/15 06:30:14;;;;;;;16.45;9.75;;;;;;;;;;4996573;28;20043;-81
2023/04/15 06:32:40;;;;;;;15.45;9.82;;;;;;;;;;5004308;28;20045;-78
2023/04/15 06:35:06;;;;;;;15.88;10.15;;;;;;;;;;4988097;28;20041;-78
2023/04/15 06:37:31;;;;;;;15.45;9.82;;;;;;;;;;4965224;28;20040;-79
2023/04/15 06:39:57;;;;;;;17.40;9.13;;;;;;;;;;5012906;28;20402;-79
2023/04/15 06:42:22;;;;;;;14.95;8.85;;;;;;;;;;5010183;28;20497;-79
2023/04/15 06:44:48;;;;;;;14.73;9.23;;;;;;;;;;4992691;28;20029;-79
2023/04/15 06:47:14;;;;;;;14.85;8.73;;;;;;;;;;5010356;28;20073;-79
2023/04/15 06:49:40;;;;;;;16.75;8.85;;;;;;;;;;5009339;28;20659;-79
2023/04/15 06:52:05;;;;;;;13.63;8.90;;;;;;;;;;5003528;28;20041;-79
2023/04/15 06:54:33;;;;;;;11.93;8.02;;;;;;;;;;5012982;28;20928;-79
2023/04/15 06:56:58;;;;;;;13.27;8.50;;;;;;;;;;5012570;28;20125;-79
2023/04/15 06:59:24;;;;;;;14.35;8.38;;;;;;;;;;4979012;28;20046;-80
2023/04/15 07:01:50;;;;;;;14.65;8.75;;;;;;;;;;4994291;28;20037;-80
2023/04/15 07:04:15;;;;;;;12.32;8.13;;;;;;;;;;5013328;28;20030;-79
2023/04/15 07:06:41;;;;;;;13.07;8.25;;;;;;;;;;4996741;28;20049;-79
2023/04/15 07:09:07;;;;;;;10.95;7.72;;;;;;;;;;4993089;28;20627;-79
2023/04/15 07:11:32;;;;;;;11.50;7.13;;;;;;;;;;4998655;28;20038;-79
2023/04/15 07:13:58;;;;;;;12.68;7.50;;;;;;;;;;4992676;28;20037;-79
2023/04/15 07:16:23;;;;;;;11.75;7.88;;;;;;;;;;4997546;28;20092;-79
2023/04/15 07:18:49;;;;;;;12.95;7.35;;;;;;;;;;4998936;28;20509;-78
2023/04/15 07:21:14;;;;;;;13.38;7.80;;;;;;;;;;4996214;28;20500;-79
2023/04/15 07:23:41;;;;;;;10.98;7.28;;;;;;;;;;5008410;28;20045;-78
2023/04/15 07:26:07;;;;;;;11.73;7.97;;;;;;;;;;4997924;28;20076;-79
2023/04/15 07:28:32;;;;;;;12.63;7.63;;;;;;;;;;4999943;28;20030;-79
2023/04/15 07:30:58;;;;;;;32.10;17.42;;;;;;;;;;4997412;28;20394;-78
2023/04/15 07:33:23;;;;;;;14.63;9.82;;;;;;;;;;5018474;28;20771;-78
2023/04/15 07:35:48;;;;;;;15.38;8.80;;;;;;;;;;5015808;28;20044;-78
2023/04/15 07:38:14;;;;;;;11.75;7.60;;;;;;;;;;4979981;28;20461;-77
2023/04/15 07:40:39;;;;;;;11.55;7.72;;;;;;;;;;4982472;28;20620;-79
2023/04/15 07:43:05;;;;;;;13.15;8.43;;;;;;;;;;4999521;28;20056;-79
2023/04/15 07:45:31;;;;;;;13.70;7.90;;;;;;;;;;4996382;28;20084;-79
2023/04/15 07:47:56;;;;;;;13.88;8.30;;;;;;;;;;5015950;28;20029;-77
2023/04/15 07:50:22;;;;;;;12.35;7.80;;;;;;;;;;5004207;28;20033;-79
2023/04/15 07:52:51;;;;;;;13.57;8.43;;;;;;;;;;4991816;28;20577;-79
2023/04/15 07:55:20;;;;;;;12.68;8.38;;;;;;;;;;5013005;28;20060;-79
2023/04/15 07:57:46;;;;;;;12.68;8.23;;;;;;;;;;4990298;28;20041;-78
2023/04/15 08:00:12;;;;;;;30.05;16.50;;;;;;;;;;4998930;28;20083;-78
2023/04/15 08:02:37;;;;;;;23.50;12.98;;;;;;;;;;5012667;28;20486;-80
2023/04/15 08:05:03;;;;;;;15.35;8.80;;;;;;;;;;4980297;28;20042;-80
2023/04/15 08:07:30;;;;;;;11.45;7.63;;;;;;;;;;5014063;28;20054;-78
2023/04/15 08:09:55;;;;;;;13.90;8.60;;;;;;;;;;5000334;28;20559;-80
2023/04/15 08:12:21;;;;;;;12.57;8.20;;;;;;;;;;5013141;28;20021;-78
2023/04/15 08:14:46;;;;;;;12.98;8.57;;;;;;;;;;5006843;28;20148;-77
2023/04/15 08:17:12;;;;;;;13.25;8.82;;;;;;;;;;4992667;28;20037;-82
2023/04/15 08:19:37;;;;;;;11.70;8.13;;;;;;;;;;4999071;28;20547;-79
2023/04/15 08:22:03;;;;;;;12.80;8.13;;;;;;;;;;4998882;28;20125;-80
2023/04/15 08:24:30;;;;;;;13.25;8.88;;;;;;;;;;5001376;28;20046;-79
2023/04/15 08:26:56;;;;;;;14.02;8.70;;;;;;;;;;4988433;28;20564;-83
2023/04/15 08:29:22;;;;;;;13.75;8.88;;;;;;;;;;4990488;28;20117;-80
2023/04/15 08:31:47;;;;;;;13.75;8.50;;;;;;;;;;4998155;28;20090;-81
2023/04/15 08:34:13;;;;;;;12.43;8.10;;;;;;;;;;4995641;28;20424;-80
2023/04/15 08:36:38;;;;;;;12.45;8.85;;;;;;;;;;4994678;28;20030;-80
2023/04/15 08:39:04;;;;;;;12.63;8.93;;;;;;;;;;4998720;28;20108;-80
2023/04/15 08:41:39;;;;;;;14.13;8.93;;;;;;;;;;4996786;28;20034;-80
2023/04/15 08:44:04;;;;;;;13.38;8.18;;;;;;;;;;4996152;28;20521;-78
2023/04/15 08:46:32;;;;;;;13.88;8.90;;;;;;;;;;5005021;28;20132;-78
2023/04/15 08:48:58;;;;;;;19.30;11.45;;;;;;;;;;5011673;28;20042;-78
2023/04/15 08:51:23;;;;;;;17.08;10.77;;;;;;;;;;5014254;28;20041;-79
2023/04/15 08:53:49;;;;;;;13.85;9.23;;;;;;;;;;4995974;28;20130;-79
2023/04/15 08:56:15;;;;;;;12.98;8.40;;;;;;;;;;4996613;28;20033;-79
2023/04/15 08:58:43;;;;;;;14.63;8.52;;;;;;;;;;4989263;28;20552;-79
2023/04/15 09:01:08;;;;;;;;;;;;;;;;;;4995357;28;20045;-78
2023/04/15 09:03:34;;;;;;;14.98;8.57;;;;;;;;;;4997993;28;19917;-77
2023/04/15 09:06:00;;;;;;;13.93;8.75;;;;;;;;;;4981209;28;20409;-78
2023/04/15 09:08:25;;;;;;;13.98;9.00;;;;;;;;;;4987654;28;20041;-78
2023/04/15 09:10:52;;;;;;;14.68;9.30;;;;;;;;;;4994555;28;20037;-78
2023/04/15 09:13:18;;;;;;;12.90;8.65;;;;;;;;;;5011932;28;20069;-78
2023/04/15 09:15:43;;;;;;;13.50;8.60;;;;;;;;;;5010566;28;20057;-78
2023/04/15 09:18:11;;;;;;;13.77;8.60;;;;;;;;;;5011860;28;20038;-77
2023/04/15 09:20:41;;;;;;;11.10;7.90;;;;;;;;;;4994412;28;20175;-78
2023/04/15 09:23:14;;;;;;;13.88;8.80;;;;;;;;;;4997323;28;20033;-77
2023/04/15 09:25:43;;;;;;;38.30;19.17;;;;;;;;;;4998542;28;20505;-78
2023/04/15 09:28:10;;;;;;;13.95;9.32;;;;;;;;;;4996947;28;20347;-78
2023/04/15 09:30:36;;;;;;;16.25;9.73;;;;;;;;;;5004696;28;20049;-77
2023/04/15 09:33:06;;;;;;;13.75;9.13;;;;;;;;;;4997670;28;20038;-76
2023/04/15 09:35:32;;;;;;;15.55;9.13;;;;;;;;;;4994579;28;20041;-79
2023/04/15 09:38:06;;;;;;;15.52;9.25;;;;;;;;;;4986309;28;20072;-81
2023/04/15 09:40:39;;;;;;;14.63;9.00;;;;;;;;;;4982190;28;20033;-80
2023/04/15 09:43:06;;;;;;;13.23;8.40;;;;;;;;;;4979657;28;20532;-80
2023/04/15 09:45:34;;;;;;;13.47;8.83;;;;;;;;;;4977634;28;20441;-81
2023/04/15 09:48:19;;;;;;;14.70;8.57;;;;;;;;;;4994625;28;20261;-81
2023/04/15 09:50:45;;;;;;;13.68;9.23;;;;;;;;;;4976193;28;20053;-80
2023/04/15 09:53:15;;;;;;;12.30;8.27;;;;;;;;;;4992851;28;20041;-80
2023/04/15 09:55:50;;;;;;;13.30;8.63;;;;;;;;;;4993694;28;20505;-80
2023/04/15 09:58:20;;;;;;;14.70;9.35;;;;;;;;;;5004066;28;20488;-80
2023/04/15 10:00:50;;;;;;;13.00;8.80;;;;;;;;;;4992654;28;20095;-80
2023/04/15 10:03:20;;;;;;;16.35;9.45;;;;;;;;;;4990884;28;20042;-81
2023/04/15 10:05:46;;;;;;;13.57;8.60;;;;;;;;;;4994273;28;20041;-83
2023/04/15 10:08:12;;;;;;;12.85;9.13;;;;;;;;;;4995453;28;20038;-81
2023/04/15 10:10:38;;;;;;;15.10;9.48;;;;;;;;;;5010445;28;20044;-80
2023/04/15 10:13:04;;;;;;;13.75;9.18;;;;;;;;;;4996216;28;20037;-82
2023/04/15 10:15:30;;;;;;;12.05;8.05;;;;;;;;;;5010222;28;20085;-82
2023/04/15 10:17:57;;;;;;;14.23;9.45;;;;;;;;;;5010992;28;20117;-81
2023/04/15 10:20:23;;;;;;;12.70;8.60;;;;;;;;;;5002905;28;20220;-80
2023/04/15 10:22:48;;;;;;;13.18;8.77;;;;;;;;;;4994622;28;20521;-80
2023/04/15 10:25:14;;;;;;;14.80;9.88;;;;;;;;;;4995026;28;20053;-80
2023/04/15 10:27:43;;;;;;;14.75;9.18;;;;;;;;;;4983078;28;20408;-80
2023/04/15 10:30:08;;;;;;;14.15;8.32;;;;;;;;;;4982436;28;20117;-80
2023/04/15 10:32:35;;;;;;;15.63;9.15;;;;;;;;;;4986312;28;20101;-80
2023/04/15 10:35:01;;;;;;;13.70;8.77;;;;;;;;;;4992612;28;20497;-80
2023/04/15 10:37:35;;;;;;;13.05;8.90;;;;;;;;;;4992964;28;20096;-81
2023/04/15 10:40:01;;;;;;;12.27;8.57;;;;;;;;;;4995323;28;20088;-81
2023/04/15 10:42:34;;;;;;;13.63;9.25;;;;;;;;;;4995442;28;20562;-80
2023/04/15 10:44:59;;;;;;;13.77;9.23;;;;;;;;;;5004275;28;20108;-80
2023/04/15 10:47:24;;;;;;;13.20;8.82;;;;;;;;;;5012174;28;20040;-79
2023/04/15 10:49:51;;;;;;;11.75;8.23;;;;;;;;;;4999547;28;20116;-80
2023/04/15 10:52:21;;;;;;;13.15;8.90;;;;;;;;;;4993883;28;20271;-80
2023/04/15 10:54:47;;;;;;;13.68;9.40;;;;;;;;;;4980722;28;20158;-80
2023/04/15 10:57:21;;;;;;;13.45;8.45;;;;;;;;;;5012383;28;20801;-80
2023/04/15 10:59:57;;;;;;;12.55;9.13;;;;;;;;;;4981089;28;20173;-81
2023/04/15 11:02:37;;;;;;;14.35;9.20;;;;;;;;;;4995842;28;20112;-80
2023/04/15 11:05:03;;;;;;;12.40;8.10;;;;;;;;;;4995992;28;20068;-83
2023/04/15 11:07:45;;;;;;;13.00;8.88;;;;;;;;;;5001747;28;20121;-80
2023/04/15 11:10:16;;;;;;;13.43;8.85;;;;;;;;;;5011557;28;20709;-82
2023/04/15 11:12:42;;;;;;;12.40;8.05;;;;;;;;;;4996798;28;20428;-81
2023/04/15 11:15:29;;;;;;;12.88;8.35;;;;;;;;;;4994306;28;20118;-80
2023/04/15 11:17:56;;;;;;;14.05;8.55;;;;;;;;;;5012828;28;20033;-79
2023/04/15 11:20:21;;;;;;;14.93;8.77;;;;;;;;;;4992289;28;20629;-79
2023/04/15 11:22:48;;;;;;;12.75;8.63;;;;;;;;;;4997159;28;20277;-79
2023/04/15 11:25:47;;;;;;;13.85;8.73;;;;;;;;;;4989840;28;20653;-79
2023/04/15 11:28:13;;;;;;;11.35;7.65;;;;;;;;;;4968559;28;20038;-80
2023/04/15 11:30:39;;;;;;;11.60;7.95;;;;;;;;;;4984578;28;20044;-80
2023/04/15 11:33:07;;;;;;;12.30;7.72;;;;;;;;;;4992428;28;20537;-79
2023/04/15 11:35:33;;;;;;;11.65;7.95;;;;;;;;;;4991241;28;20381;-80
2023/04/15 11:38:05;;;;;;;13.38;8.48;;;;;;;;;;4989524;28;20049;-80
2023/04/15 11:40:32;;;;;;;11.57;8.05;;;;;;;;;;4974818;28;20041;-80
2023/04/15 11:43:04;;;;;;;12.60;8.48;;;;;;;;;;4993928;28;20041;-82
2023/04/15 11:45:29;;;;;;;13.18;8.65;;;;;;;;;;5000015;28;20046;-80
2023/04/15 11:48:04;;;;;;;14.07;8.32;;;;;;;;;;4994725;28;20454;-82
2023/04/15 11:50:29;;;;;;;14.02;9.02;;;;;;;;;;4995707;28;20613;-81
2023/04/15 11:52:57;;;;;;;15.55;9.00;;;;;;;;;;4979272;28;20117;-81
2023/04/15 11:55:23;;;;;;;12.95;8.82;;;;;;;;;;5003360;28;20454;-82
2023/04/15 11:58:19;;;;;;;13.43;8.90;;;;;;;;;;4985578;28;20076;-82
2023/04/15 12:00:51;;;;;;;12.27;7.97;;;;;;;;;;4984045;28;20703;-81
2023/04/15 12:03:27;;;;;;;12.63;8.20;;;;;;;;;;4995156;28;20544;-82
2023/04/15 12:06:03;;;;;;;11.88;8.13;;;;;;;;;;5009414;28;20125;-78
2023/04/15 12:08:47;;;;;;;10.88;7.55;;;;;;;;;;4996830;28;20405;-79
2023/04/15 12:11:16;;;;;;;12.60;7.85;;;;;;;;;;4993840;28;20922;-80
2023/04/15 12:13:48;;;;;;;12.77;8.02;;;;;;;;;;4997611;28;20118;-79
2023/04/15 12:16:18;;;;;;;12.70;7.75;;;;;;;;;;4976856;28;20402;-80
2023/04/15 12:18:56;;;;;;;11.75;7.57;;;;;;;;;;4996826;28;20042;-80
2023/04/15 12:21:24;;;;;;;12.85;7.82;;;;;;;;;;4996291;28;20069;-80
2023/04/15 12:24:01;;;;;;;12.70;7.75;;;;;;;;;;5002983;28;20517;-79
2023/04/15 12:26:33;;;;;;;11.20;7.38;;;;;;;;;;5015286;28;20042;-81
2023/04/15 12:29:02;;;;;;;13.07;7.63;;;;;;;;;;4999870;28;20038;-80
2023/04/15 12:31:27;;;;;;;11.85;7.78;;;;;;;;;;5012136;28;20532;-80
2023/04/15 12:33:59;;;;;;;13.80;8.18;;;;;;;;;;4996954;28;20033;-79
2023/04/15 12:36:25;;;;;;;10.45;6.97;;;;;;;;;;5000647;28;20034;-78
2023/04/15 12:38:51;;;;;;;10.52;7.43;;;;;;;;;;4980509;28;20497;-78
2023/04/15 12:41:16;;;;;;;13.23;8.27;;;;;;;;;;5013847;28;20045;-78
2023/04/15 12:43:45;;;;;;;11.52;7.90;;;;;;;;;;4998470;28;20117;-76
2023/04/15 12:46:11;;;;;;;11.48;7.50;;;;;;;;;;4997027;28;20042;-76
2023/04/15 12:48:37;;;;;;;10.45;6.90;;;;;;;;;;5014166;28;20088;-76
2023/04/15 12:51:03;;;;;;;11.65;7.70;;;;;;;;;;4995309;28;20078;-81
2023/04/15 12:53:28;;;;;;;10.05;6.57;;;;;;;;;;5015090;28;20138;-80
2023/04/15 12:55:53;;;;;;;10.32;6.68;;;;;;;;;;5013291;28;20068;-80
2023/04/15 12:58:20;;;;;;;12.25;6.97;;;;;;;;;;5014805;28;20030;-81
2023/04/15 13:00:46;;;;;;;9.75;7.18;;;;;;;;;;4995670;28;20060;-80
2023/04/15 13:03:11;;;;;;;11.15;7.45;;;;;;;;;;4996648;28;20124;-79
2023/04/15 13:05:38;;;;;;;11.05;7.15;;;;;;;;;;4992804;28;20045;-81
2023/04/15 13:08:04;;;;;;;11.25;7.20;;;;;;;;;;4981973;28;20432;-81
2023/04/15 13:10:30;;;;;;;10.10;6.80;;;;;;;;;;4993859;28;20029;-81
2023/04/15 13:12:56;;;;;;;11.52;7.70;;;;;;;;;;4994104;28;20038;-81
2023/04/15 13:15:22;;;;;;;12.88;7.32;;;;;;;;;;4985886;28;20034;-81
2023/04/15 13:17:48;;;;;;;9.85;6.88;;;;;;;;;;4997263;28;20084;-81
2023/04/15 13:20:14;;;;;;;9.40;6.75;;;;;;;;;;4994965;28;20461;-81
2023/04/15 13:22:40;;;;;;;10.57;6.85;;;;;;;;;;4981381;28;20044;-80
2023/04/15 13:25:06;;;;;;;9.15;6.20;;;;;;;;;;4957515;28;20049;-80
2023/04/15 13:27:32;;;;;;;8.77;5.93;;;;;;;;;;5003799;28;20064;-80
2023/04/15 13:29:58;;;;;;;8.65;5.88;;;;;;;;;;4988174;28;20037;-80
2023/04/15 13:32:24;;;;;;;9.27;5.80;;;;;;;;;;5011932;28;20366;-80
2023/04/15 13:34:49;;;;;;;11.38;6.50;;;;;;;;;;5004943;28;20052;-81
2023/04/15 13:37:15;;;;;;;9.57;6.07;;;;;;;;;;5012463;28;20028;-80
2023/04/15 13:39:40;;;;;;;9.40;6.50;;;;;;;;;;4996540;28;20072;-81
2023/04/15 13:42:05;;;;;;;9.15;6.30;;;;;;;;;;4985523;28;20029;-81
2023/04/15 13:44:31;;;;;;;8.93;5.93;;;;;;;;;;4980786;28;20088;-80
2023/04/15 13:46:56;;;;;;;9.35;6.13;;;;;;;;;;4983377;28;20033;-81
2023/04/15 13:49:22;;;;;;;10.93;6.45;;;;;;;;;;4996192;28;20045;-80
2023/04/15 13:51:47;;;;;;;8.15;5.78;;;;;;;;;;5012750;28;20040;-81
2023/04/15 13:54:12;;;;;;;9.30;6.10;;;;;;;;;;4998582;28;20128;-80
2023/04/15 13:56:38;;;;;;;8.63;5.63;;;;;;;;;;5011495;28;20034;-81
2023/04/15 13:59:05;;;;;;;8.98;6.03;;;;;;;;;;4997468;28;20421;-81
2023/04/15 14:01:30;;;;;;;10.02;5.95;;;;;;;;;;4995581;28;20489;-80
2023/04/15 14:03:56;;;;;;;10.50;6.85;;;;;;;;;;4998702;28;20057;-80
2023/04/15 14:06:21;;;;;;;11.55;6.07;;;;;;;;;;4994049;28;20030;-81
2023/04/15 14:08:46;;;;;;;8.32;5.43;;;;;;;;;;4995265;28;20474;-80
2023/04/15 14:11:12;;;;;;;9.38;6.07;;;;;;;;;;4978581;28;20057;-80
2023/04/15 14:13:37;;;;;;;8.68;5.80;;;;;;;;;;5013827;28;20448;-79
2023/04/15 14:16:03;;;;;;;9.02;5.68;;;;;;;;;;5002746;28;20034;-80
2023/04/15 14:18:29;;;;;;;10.18;5.57;;;;;;;;;;4998413;28;20456;-80
2023/04/15 14:20:54;;;;;;;7.43;5.13;;;;;;;;;;4985710;28;20130;-80
2023/04/15 14:23:20;;;;;;;8.32;5.15;;;;;;;;;;4994943;28;20512;-80